Old Washingtn, Ohio
Current Conditions -  °F | °C
As of 3:53 PM on Saturday 22 Nov 2014 (Local Time) from KZZV Reporting Station
Overcast Overcast  
Wind Chill: 41°   Ceiling: 7500
Heat Index: 44°   Visibility: 10mi
Dew Point: 33°   Wind: 6mph
Humidity: 65%   Direction: 130°SE
Pressure: 30.14"   Gusts: NA
Location:  40.0387°N, 81.4447°W
Report Text: KZZV 222053Z AUTO 13005KT 10SM SCT060 BKN075 OVC100 07/01 A3014 RMK AO2 SLP217 T00670006 56019
Loading
Personal Weather Stations






























Interactive Weather Map New forecast layout! Learn more

10-Day Weather Forecast

Advertisements
Track Severe Weather on mobile